createdAt,value
2022-08-04T00:02:03.622Z,2.37
2022-08-04T00:04:37.584Z,3.10
2022-08-04T00:07:04.032Z,2.83
2022-08-04T00:09:47.534Z,2.63
2022-08-04T00:12:16.708Z,2.13
2022-08-04T00:14:55.385Z,2.63
2022-08-04T00:17:25.631Z,2.57
2022-08-04T00:19:55.278Z,2.70
2022-08-04T00:22:26.549Z,2.33
2022-08-04T00:24:55.071Z,3.50
2022-08-04T00:27:21.967Z,2.57
2022-08-04T00:29:48.669Z,2.67
2022-08-04T00:32:33.678Z,2.80
2022-08-04T00:35:00.911Z,2.67
2022-08-04T00:37:28.153Z,2.80
2022-08-04T00:39:55.602Z,3.00
2022-08-04T00:42:37.365Z,3.40
2022-08-04T00:45:24.738Z,2.70
2022-08-04T00:48:25.066Z,3.47
2022-08-04T00:51:10.377Z,2.90
2022-08-04T00:53:36.863Z,2.27
2022-08-04T00:56:31.109Z,2.13
2022-08-04T00:59:18.842Z,2.63
2022-08-04T01:02:06.920Z,2.13
2022-08-04T01:04:49.428Z,2.87
2022-08-04T01:07:55.378Z,2.73
2022-08-04T01:10:37.019Z,2.67
2022-08-04T01:13:15.181Z,2.90
2022-08-04T01:15:59.895Z,2.80
2022-08-04T01:18:39.638Z,2.50
2022-08-04T01:21:12.098Z,2.73
2022-08-04T01:23:41.475Z,2.90
2022-08-04T01:26:43.692Z,3.17
2022-08-04T01:29:21.502Z,2.83
2022-08-04T01:32:03.321Z,2.53
2022-08-04T01:34:34.470Z,3.00
2022-08-04T01:37:07.833Z,2.93
2022-08-04T01:39:41.232Z,2.50
2022-08-04T01:42:11.782Z,3.23
2022-08-04T01:44:40.890Z,2.73
2022-08-04T01:47:07.864Z,2.77
2022-08-04T01:49:40.391Z,2.57
2022-08-04T01:52:10.414Z,2.93
2022-08-04T01:54:39.390Z,2.57
2022-08-04T01:57:38.302Z,3.07
2022-08-04T01:59:53.575Z,3.30
2022-08-04T02:02:24.276Z,2.57
2022-08-04T02:04:51.287Z,2.33
2022-08-04T02:07:40.737Z,2.73
2022-08-04T02:10:18.161Z,2.50
2022-08-04T02:12:53.880Z,1.83
2022-08-04T02:15:20.173Z,2.77
2022-08-04T02:18:01.026Z,3.20
2022-08-04T02:20:30.427Z,2.77
2022-08-04T02:23:03.252Z,2.50
2022-08-04T02:25:36.901Z,2.90
2022-08-04T02:28:13.020Z,3.13
2022-08-04T02:31:02.505Z,2.73
2022-08-04T02:33:40.515Z,2.70
2022-08-04T02:36:10.561Z,2.67
2022-08-04T02:38:56.341Z,2.70
2022-08-04T02:41:24.630Z,2.83
2022-08-04T02:43:52.840Z,2.43
2022-08-04T02:46:20.856Z,1.87
2022-08-04T02:48:48.471Z,3.40
2022-08-04T02:51:15.824Z,2.00
2022-08-04T02:53:43.932Z,2.47
2022-08-04T02:56:12.427Z,2.27
2022-08-04T02:58:42.593Z,2.60
2022-08-04T03:01:09.025Z,2.53
2022-08-04T03:03:52.867Z,2.40
2022-08-04T03:06:33.660Z,2.57
2022-08-04T03:08:59.924Z,3.00
2022-08-04T03:11:50.490Z,2.67
2022-08-04T03:14:53.991Z,2.37
2022-08-04T03:17:37.612Z,2.17
2022-08-04T03:20:44.494Z,2.87
2022-08-04T03:23:29.345Z,2.63
2022-08-04T03:26:15.377Z,2.83
2022-08-04T03:28:53.594Z,2.67
2022-08-04T03:31:42.989Z,2.80
2022-08-04T03:34:28.201Z,3.03
2022-08-04T03:37:03.349Z,2.70
2022-08-04T03:40:10.571Z,2.80
2022-08-04T03:42:44.633Z,2.30
2022-08-04T03:45:38.501Z,3.23
2022-08-04T03:48:16.958Z,2.63
2022-08-04T03:51:36.237Z,2.97
2022-08-04T03:54:08.961Z,2.93
2022-08-04T03:57:03.362Z,3.07
2022-08-04T03:59:41.960Z,2.83
2022-08-04T04:02:41.582Z,3.07
2022-08-04T04:05:34.299Z,3.40
2022-08-04T04:08:37.808Z,3.07
2022-08-04T04:11:29.310Z,4.07
2022-08-04T04:14:07.620Z,3.80
2022-08-04T04:17:11.446Z,3.23
2022-08-04T04:19:58.491Z,3.73
2022-08-04T04:22:40.345Z,3.37
2022-08-04T04:25:19.317Z,3.97
2022-08-04T04:28:45.136Z,4.20
2022-08-04T04:31:24.589Z,3.40
2022-08-04T04:34:24.830Z,3.43
2022-08-04T04:37:13.871Z,3.80
2022-08-04T04:39:51.937Z,3.13
2022-08-04T04:42:26.919Z,3.30
2022-08-04T04:45:05.349Z,4.00
2022-08-04T04:48:08.851Z,3.80
2022-08-04T04:50:42.542Z,4.50
2022-08-04T04:53:13.683Z,3.67
2022-08-04T04:55:46.382Z,4.37
2022-08-04T04:58:18.755Z,3.03
2022-08-04T05:01:15.659Z,3.77
2022-08-04T05:04:05.599Z,3.93
2022-08-04T05:06:54.201Z,4.50
2022-08-04T05:09:39.787Z,4.10
2022-08-04T05:14:33.077Z,3.80
2022-08-04T05:15:23.865Z,3.87
2022-08-04T05:17:55.297Z,3.63
2022-08-04T05:20:30.036Z,4.17
2022-08-04T05:23:13.469Z,3.40
2022-08-04T05:25:39.749Z,3.63
2022-08-04T05:28:08.830Z,3.70
2022-08-04T05:30:38.634Z,4.07
2022-08-04T05:33:11.045Z,3.87
2022-08-04T05:36:16.847Z,3.87
2022-08-04T05:38:35.530Z,3.63
2022-08-04T05:41:03.534Z,4.17
2022-08-04T05:43:30.902Z,3.97
2022-08-04T05:45:58.191Z,3.67
2022-08-04T05:48:24.868Z,4.60
2022-08-04T05:50:52.354Z,4.67
2022-08-04T05:53:19.161Z,4.50
2022-08-04T05:55:59.213Z,4.07
2022-08-04T05:58:30.693Z,3.77
2022-08-04T06:00:59.626Z,4.50
2022-08-04T06:03:26.882Z,3.93
2022-08-04T06:05:54.578Z,3.87
2022-08-04T06:08:20.945Z,4.30
2022-08-04T06:10:49.211Z,4.80
2022-08-04T06:13:48.702Z,4.60
2022-08-04T06:16:05.792Z,4.03
2022-08-04T06:20:02.864Z,3.90
2022-08-04T06:21:24.745Z,4.13
2022-08-04T06:23:53.675Z,3.70
2022-08-04T06:26:26.240Z,4.53
2022-08-04T06:28:54.729Z,4.27
2022-08-04T06:32:30.566Z,2.90
2022-08-04T06:34:29.912Z,4.13
2022-08-04T06:36:58.248Z,4.20
2022-08-04T06:39:25.927Z,4.60
2022-08-04T06:42:02.563Z,4.40
2022-08-04T06:44:43.054Z,4.20
2022-08-04T06:47:10.343Z,4.07
2022-08-04T06:49:43.900Z,4.43
2022-08-04T06:52:21.815Z,4.03
2022-08-04T06:54:51.083Z,4.00
2022-08-04T06:57:23.443Z,4.53
2022-08-04T06:59:54.471Z,4.07
2022-08-04T07:02:22.255Z,4.00
2022-08-04T07:04:48.857Z,3.25
2022-08-04T07:07:17.403Z,3.70
2022-08-04T07:09:44.740Z,3.85
2022-08-04T07:12:11.169Z,3.33
2022-08-04T07:14:39.160Z,3.53
2022-08-04T07:17:06.049Z,3.65
2022-08-04T07:19:33.097Z,3.75
2022-08-04T07:22:18.204Z,3.38
2022-08-04T07:24:54.705Z,3.10
2022-08-04T07:27:47.558Z,3.45
2022-08-04T07:30:11.376Z,3.42
2022-08-04T07:32:38.556Z,3.03
2022-08-04T07:35:05.833Z,3.38
2022-08-04T07:37:39.004Z,2.90
2022-08-04T07:40:07.016Z,2.90
2022-08-04T07:42:33.613Z,3.03
2022-08-04T07:45:00.409Z,3.03
2022-08-04T07:47:27.613Z,3.03
2022-08-04T07:49:57.662Z,2.95
2022-08-04T07:52:25.596Z,2.90
2022-08-04T07:54:53.292Z,5.70
2022-08-04T07:57:40.647Z,3.17
2022-08-04T08:00:08.482Z,2.40
2022-08-04T08:02:48.220Z,2.60
2022-08-04T08:05:16.713Z,2.53
2022-08-04T08:07:50.925Z,2.42
2022-08-04T08:10:21.693Z,2.47
2022-08-04T08:12:51.397Z,2.58
2022-08-04T08:15:19.595Z,2.50
2022-08-04T08:17:58.322Z,1.95
2022-08-04T08:20:29.620Z,2.25
2022-08-04T08:22:57.224Z,2.20
2022-08-04T08:25:24.246Z,2.35
2022-08-04T08:27:56.221Z,2.55
2022-08-04T08:30:23.841Z,2.17
2022-08-04T08:32:50.844Z,4.25
2022-08-04T08:35:17.701Z,3.10
2022-08-04T08:37:52.868Z,2.72
2022-08-04T08:40:40.816Z,2.70
2022-08-04T08:44:06.599Z,3.38
2022-08-04T08:46:49.706Z,2.45
2022-08-04T08:50:04.640Z,2.25
2022-08-04T08:53:02.242Z,2.22
2022-08-04T08:56:03.626Z,1.75
2022-08-04T08:58:29.960Z,2.08
2022-08-04T09:01:06.744Z,2.25
2022-08-04T09:04:00.932Z,1.65
2022-08-04T09:06:47.605Z,2.10
2022-08-04T09:09:26.438Z,2.00
2022-08-04T09:12:28.027Z,1.90
2022-08-04T09:14:58.100Z,1.92
2022-08-04T09:17:33.189Z,2.08
2022-08-04T09:20:02.898Z,1.80
2022-08-04T09:22:53.726Z,1.95
2022-08-04T09:25:28.879Z,1.73
2022-08-04T09:28:05.747Z,1.95
2022-08-04T09:30:46.523Z,2.00
2022-08-04T09:33:45.381Z,1.95
2022-08-04T09:36:30.891Z,1.90
2022-08-04T09:39:06.315Z,1.98
2022-08-04T09:41:52.646Z,1.85
2022-08-04T09:44:48.852Z,2.22
2022-08-04T09:47:19.287Z,1.95
2022-08-04T09:49:54.936Z,2.70
2022-08-04T09:52:40.107Z,1.95
2022-08-04T09:55:29.815Z,2.75
2022-08-04T09:58:08.902Z,3.00
2022-08-04T10:00:43.982Z,2.03
2022-08-04T10:03:19.195Z,2.55
2022-08-04T10:06:31.600Z,2.67
2022-08-04T10:09:16.806Z,2.40
2022-08-04T10:11:54.384Z,3.15
2022-08-04T10:14:37.570Z,2.80
2022-08-04T10:17:26.655Z,3.13
2022-08-04T10:20:01.969Z,2.63
2022-08-04T10:22:55.378Z,2.75
2022-08-04T10:26:03.262Z,2.42
2022-08-04T10:28:22.092Z,2.60
2022-08-04T10:31:07.219Z,2.20
2022-08-04T10:34:04.878Z,2.17
2022-08-04T10:36:57.036Z,2.30
2022-08-04T10:40:03.513Z,1.95
2022-08-04T10:42:31.878Z,2.50
2022-08-04T10:45:10.709Z,2.38
2022-08-04T10:47:43.738Z,2.47
2022-08-04T10:50:11.837Z,2.88
2022-08-04T10:52:46.069Z,2.33
2022-08-04T10:55:19.124Z,2.45
2022-08-04T10:58:24.794Z,1.60
2022-08-04T11:02:01.230Z,2.00
2022-08-04T11:04:27.855Z,2.13
2022-08-04T11:06:55.940Z,1.70
2022-08-04T11:09:22.484Z,2.15
2022-08-04T11:12:01.448Z,1.98
2022-08-04T11:14:54.470Z,2.40
2022-08-04T11:17:33.661Z,1.85
2022-08-04T11:20:34.151Z,1.75
2022-08-04T11:23:16.046Z,2.10
2022-08-04T11:25:51.595Z,1.95
2022-08-04T11:28:32.767Z,1.80
2022-08-04T11:31:03.869Z,1.63
2022-08-04T11:33:47.017Z,1.63
2022-08-04T11:36:20.870Z,1.80
2022-08-04T11:39:03.602Z,2.75
2022-08-04T11:41:54.526Z,1.95
2022-08-04T11:44:31.566Z,1.98
2022-08-04T11:47:02.524Z,1.70
2022-08-04T11:49:57.540Z,2.00
2022-08-04T11:52:26.110Z,2.40
2022-08-04T11:54:54.949Z,2.17
2022-08-04T11:57:22.230Z,2.03
2022-08-04T11:59:56.296Z,2.03
2022-08-04T12:02:37.083Z,1.92
2022-08-04T12:05:08.023Z,1.98
2022-08-04T12:07:55.270Z,2.80
2022-08-04T12:10:41.485Z,2.08
2022-08-04T12:13:21.231Z,2.40
2022-08-04T12:15:50.843Z,2.88
2022-08-04T12:18:30.775Z,2.60
2022-08-04T12:21:00.022Z,2.13
2022-08-04T12:23:32.530Z,2.10
2022-08-04T12:26:05.219Z,2.28
2022-08-04T12:28:59.558Z,2.17
2022-08-04T12:31:40.528Z,2.80
2022-08-04T12:34:12.819Z,2.55
2022-08-04T12:36:45.556Z,2.70
2022-08-04T12:39:22.954Z,2.45
2022-08-04T12:41:52.191Z,3.33
2022-08-04T12:44:37.933Z,2.97
2022-08-04T12:47:27.776Z,2.83
2022-08-04T12:50:00.640Z,3.22
2022-08-04T12:55:17.681Z,3.45
2022-08-04T12:57:44.275Z,2.58
2022-08-04T13:00:11.255Z,2.50
2022-08-04T13:02:41.287Z,2.70
2022-08-04T13:05:08.205Z,3.05
2022-08-04T13:07:43.834Z,3.60
2022-08-04T13:10:18.358Z,3.45
2022-08-04T13:12:55.068Z,2.85
2022-08-04T13:15:23.248Z,3.60
2022-08-04T13:17:57.102Z,3.38
2022-08-04T13:20:31.330Z,3.17
2022-08-04T13:23:05.925Z,2.90
2022-08-04T13:26:44.888Z,3.15
2022-08-04T13:28:29.414Z,2.40
2022-08-04T13:30:59.782Z,2.90
2022-08-04T13:33:41.156Z,3.28
2022-08-04T13:36:08.768Z,2.70
2022-08-04T13:38:39.682Z,2.80
2022-08-04T13:41:07.547Z,2.60
2022-08-04T13:44:15.415Z,3.05
2022-08-04T13:46:32.241Z,2.55
2022-08-04T13:49:43.172Z,2.80
2022-08-04T13:52:14.470Z,2.58
2022-08-04T13:54:44.940Z,2.50
2022-08-04T13:57:31.536Z,2.47
2022-08-04T14:00:00.366Z,2.50
2022-08-04T14:02:46.700Z,2.92
2022-08-04T14:05:27.431Z,2.30
2022-08-04T14:08:14.311Z,2.17
2022-08-04T14:10:40.716Z,3.33
2022-08-04T14:13:07.610Z,2.80
2022-08-04T14:15:54.798Z,2.50
2022-08-04T14:18:31.952Z,2.35
2022-08-04T14:21:10.523Z,1.98
2022-08-04T14:23:53.978Z,1.95
2022-08-04T14:26:32.568Z,2.50
2022-08-04T14:29:26.864Z,1.67
2022-08-04T14:32:04.402Z,2.05
2022-08-04T14:34:41.265Z,2.05
2022-08-04T14:37:17.857Z,2.72
2022-08-04T14:40:07.886Z,2.30
2022-08-04T14:42:42.702Z,2.03
2022-08-04T14:45:09.864Z,2.10
2022-08-04T14:47:52.587Z,3.00
2022-08-04T14:50:19.830Z,2.08
2022-08-04T14:52:46.157Z,2.05
2022-08-04T14:55:18.378Z,2.08
2022-08-04T14:58:36.816Z,2.30
2022-08-04T15:00:36.442Z,1.92
2022-08-04T15:03:10.502Z,1.83
2022-08-04T15:06:02.098Z,2.65
2022-08-04T15:08:31.018Z,2.13
2022-08-04T15:10:59.769Z,2.13
2022-08-04T15:13:26.936Z,6.20
2022-08-04T15:16:06.106Z,2.30
2022-08-04T15:18:35.925Z,2.35
2022-08-04T15:21:04.281Z,2.17
2022-08-04T15:23:32.039Z,2.95
2022-08-04T15:26:07.498Z,2.38
2022-08-04T15:28:37.618Z,2.25
2022-08-04T15:31:11.738Z,2.08
2022-08-04T15:33:55.402Z,3.05
2022-08-04T15:36:26.257Z,2.45
2022-08-04T15:39:11.326Z,2.83
2022-08-04T15:41:46.247Z,1.92
2022-08-04T15:44:46.805Z,1.90
2022-08-04T15:47:14.236Z,2.05
2022-08-04T15:49:41.581Z,1.85
2022-08-04T15:52:16.732Z,2.42
2022-08-04T15:54:52.357Z,2.45
2022-08-04T15:57:58.988Z,2.60
2022-08-04T16:00:25.425Z,2.40
2022-08-04T16:02:51.873Z,2.35
2022-08-04T16:05:21.092Z,2.05
2022-08-04T16:07:57.075Z,2.17
2022-08-04T16:10:29.589Z,1.92
2022-08-04T16:12:58.358Z,2.65
2022-08-04T16:15:41.755Z,2.50
2022-08-04T16:18:14.466Z,1.95
2022-08-04T16:20:58.168Z,2.60
2022-08-04T16:23:55.192Z,2.15
2022-08-04T16:26:37.857Z,2.65
2022-08-04T16:29:34.327Z,2.65
2022-08-04T16:32:14.851Z,1.70
2022-08-04T16:34:53.689Z,1.55
2022-08-04T16:37:42.989Z,2.38
2022-08-04T16:40:37.426Z,2.28
2022-08-04T16:43:06.280Z,2.30
2022-08-04T16:45:39.706Z,2.00
2022-08-04T16:48:08.154Z,2.20
2022-08-04T16:50:44.503Z,2.67
2022-08-04T16:53:14.598Z,2.20
2022-08-04T16:55:58.253Z,2.28
2022-08-04T16:58:25.996Z,2.80
2022-08-04T17:00:52.748Z,2.30
2022-08-04T17:03:19.368Z,1.95
2022-08-04T17:05:48.344Z,2.60
2022-08-04T17:08:29.701Z,2.28
2022-08-04T17:10:56.899Z,1.98
2022-08-04T17:14:02.292Z,2.13
2022-08-04T17:16:28.517Z,2.33
2022-08-04T17:18:55.245Z,2.38
2022-08-04T17:21:23.574Z,2.38
2022-08-04T17:24:14.988Z,2.28
2022-08-04T17:29:43.922Z,2.53
2022-08-04T17:32:16.638Z,2.55
2022-08-04T17:34:47.450Z,2.85
2022-08-04T17:40:28.630Z,2.42
2022-08-04T17:43:01.794Z,2.30
2022-08-04T17:48:24.284Z,2.20
2022-08-04T17:50:51.325Z,2.88
2022-08-04T17:53:21.152Z,2.50
2022-08-04T17:55:49.403Z,2.72
2022-08-04T18:01:23.492Z,2.35
2022-08-04T18:03:53.179Z,2.30
2022-08-04T18:06:22.730Z,3.25
2022-08-04T18:08:57.726Z,2.67
2022-08-04T18:11:28.770Z,2.55
2022-08-04T18:14:08.763Z,2.10
2022-08-04T18:16:42.640Z,2.03
2022-08-04T18:19:12.973Z,2.17
2022-08-04T18:21:46.347Z,2.78
2022-08-04T18:24:34.695Z,3.13
2022-08-04T18:27:14.627Z,2.60
2022-08-04T18:29:41.631Z,2.60
2022-08-04T18:32:33.191Z,3.03
2022-08-04T18:35:05.012Z,2.90
2022-08-04T18:38:06.648Z,2.75
2022-08-04T18:40:52.690Z,3.50
2022-08-04T18:43:28.748Z,3.42
2022-08-04T18:46:08.775Z,2.50
2022-08-04T18:48:41.343Z,2.67
2022-08-04T18:51:22.370Z,3.08
2022-08-04T18:53:55.314Z,2.92
2022-08-04T18:56:36.575Z,2.72
2022-08-04T18:59:05.368Z,2.67
2022-08-04T19:02:09.211Z,2.38
2022-08-04T19:04:33.058Z,2.72
2022-08-04T19:07:03.833Z,2.60
2022-08-04T19:09:51.812Z,3.40
2022-08-04T19:12:27.373Z,3.08
2022-08-04T19:14:58.133Z,2.90
2022-08-04T19:17:53.977Z,2.63
2022-08-04T19:24:27.810Z,2.33
2022-08-04T19:25:59.112Z,3.40
2022-08-04T19:28:34.348Z,2.65
2022-08-04T19:31:08.362Z,2.55
2022-08-04T19:33:59.280Z,2.50
2022-08-04T19:36:27.942Z,2.50
2022-08-04T19:38:56.066Z,2.78
2022-08-04T19:41:22.546Z,2.15
2022-08-04T19:43:52.963Z,2.33
2022-08-04T19:46:19.914Z,3.60
2022-08-04T19:48:59.522Z,2.15
2022-08-04T19:51:38.870Z,2.65
2022-08-04T19:54:16.760Z,2.20
2022-08-04T19:56:50.234Z,2.50
2022-08-04T19:59:16.937Z,2.50
2022-08-04T20:01:45.508Z,2.50
2022-08-04T20:04:12.869Z,2.58
2022-08-04T20:06:39.229Z,2.95
2022-08-04T20:09:24.652Z,2.80
2022-08-04T20:11:52.275Z,2.30
2022-08-04T20:14:19.507Z,2.42
2022-08-04T20:16:49.557Z,2.63
2022-08-04T20:19:16.009Z,2.83
2022-08-04T20:21:55.999Z,2.80
2022-08-04T20:24:38.752Z,2.50
2022-08-04T20:27:14.641Z,2.83
2022-08-04T20:29:50.341Z,2.25
2022-08-04T20:32:19.771Z,2.55
2022-08-04T20:34:47.673Z,3.20
2022-08-04T20:37:20.457Z,1.90
2022-08-04T20:39:54.688Z,2.70
2022-08-04T20:42:27.095Z,3.00
2022-08-04T20:44:55.238Z,3.17
2022-08-04T20:47:22.273Z,2.63
2022-08-04T20:49:49.063Z,3.20
2022-08-04T20:55:03.876Z,3.33
2022-08-04T20:57:48.812Z,3.17
2022-08-04T21:00:16.723Z,3.03
2022-08-04T21:02:44.546Z,2.50
2022-08-04T21:05:11.353Z,2.73
2022-08-04T21:07:43.829Z,2.50
2022-08-04T21:10:15.197Z,2.20
2022-08-04T21:12:43.531Z,2.37
2022-08-04T21:15:25.133Z,2.63
2022-08-04T21:17:59.345Z,2.33
2022-08-04T21:20:31.611Z,2.07
2022-08-04T21:23:02.079Z,1.80
2022-08-04T21:25:30.320Z,2.73
2022-08-04T21:27:58.550Z,2.17
2022-08-04T21:30:26.668Z,2.13
2022-08-04T21:32:54.878Z,2.17
2022-08-04T21:35:30.158Z,2.17
2022-08-04T21:38:17.093Z,2.10
2022-08-04T21:40:54.535Z,2.13
2022-08-04T21:43:27.184Z,2.30
2022-08-04T21:45:55.735Z,2.27
2022-08-04T21:48:22.500Z,1.87
2022-08-04T21:50:50.588Z,2.37
2022-08-04T21:53:19.517Z,2.10
2022-08-04T21:56:04.798Z,1.67
2022-08-04T21:58:33.803Z,2.10
2022-08-04T22:01:00.299Z,2.20
2022-08-04T22:03:53.908Z,1.90
2022-08-04T22:06:17.297Z,2.40
2022-08-04T22:08:49.150Z,1.83
2022-08-04T22:11:27.743Z,2.63
2022-08-04T22:14:14.145Z,2.60
2022-08-04T22:16:40.609Z,2.13
2022-08-04T22:19:09.009Z,2.50
2022-08-04T22:21:39.104Z,1.93
2022-08-04T22:24:13.893Z,2.50
2022-08-04T22:26:41.224Z,2.20
2022-08-04T22:29:07.671Z,2.00
2022-08-04T22:31:56.011Z,2.00
2022-08-04T22:34:24.967Z,2.27
2022-08-04T22:36:53.552Z,2.90
2022-08-04T22:39:20.561Z,2.17
2022-08-04T22:42:03.232Z,2.27
2022-08-04T22:44:32.326Z,2.53
2022-08-04T22:47:00.314Z,2.80
2022-08-04T22:49:31.505Z,3.23
2022-08-04T22:51:58.919Z,2.80
2022-08-04T22:54:25.976Z,3.17
2022-08-04T22:56:55.051Z,2.80
2022-08-04T22:59:23.292Z,2.63
2022-08-04T23:01:58.102Z,3.43
2022-08-04T23:04:29.248Z,3.33
2022-08-04T23:06:55.579Z,2.93
2022-08-04T23:09:49.589Z,3.13
2022-08-04T23:12:24.346Z,3.17
2022-08-04T23:14:53.303Z,3.67
2022-08-04T23:17:21.364Z,3.23
2022-08-04T23:19:55.435Z,3.97
2022-08-04T23:22:41.115Z,3.03
2022-08-04T23:25:16.581Z,3.23
2022-08-04T23:27:50.855Z,3.30
2022-08-04T23:30:20.833Z,3.80
2022-08-04T23:32:48.604Z,3.40
2022-08-04T23:35:15.423Z,3.00
2022-08-04T23:37:56.082Z,3.90
2022-08-04T23:40:29.868Z,3.03
2022-08-04T23:42:59.292Z,2.80
2022-08-04T23:46:04.084Z,3.27
2022-08-04T23:48:14.641Z,3.50
2022-08-04T23:50:43.137Z,3.10
2022-08-04T23:53:10.406Z,3.17
2022-08-04T23:55:45.252Z,2.73
2022-08-04T23:58:18.553Z,3.63
